sensor_id;sensor_type;location;lat;lon;timestamp;P1;durP1;ratioP1;P2;durP2;ratioP2
48849;SDS011;63210;53.370;6.770;2023-07-02T00:02:21;13.23;;;5.63;;
48849;SDS011;63210;53.370;6.770;2023-07-02T00:04:47;16.95;;;5.78;;
48849;SDS011;63210;53.370;6.770;2023-07-02T00:07:12;19.45;;;6.55;;
48849;SDS011;63210;53.370;6.770;2023-07-02T00:09:39;15.95;;;6.15;;
48849;SDS011;63210;53.370;6.770;2023-07-02T00:12:05;19.60;;;6.88;;
48849;SDS011;63210;53.370;6.770;2023-07-02T00:14:30;15.02;;;6.60;;
48849;SDS011;63210;53.370;6.770;2023-07-02T00:16:56;25.60;;;7.43;;
48849;SDS011;63210;53.370;6.770;2023-07-02T00:19:21;18.30;;;7.07;;
48849;SDS011;63210;53.370;6.770;2023-07-02T00:21:46;18.20;;;7.30;;
48849;SDS011;63210;53.370;6.770;2023-07-02T00:24:12;19.48;;;6.72;;
48849;SDS011;63210;53.370;6.770;2023-07-02T00:26:38;22.25;;;8.10;;
48849;SDS011;63210;53.370;6.770;2023-07-02T00:29:05;23.40;;;7.85;;
48849;SDS011;63210;53.370;6.770;2023-07-02T00:31:31;22.42;;;8.68;;
48849;SDS011;63210;53.370;6.770;2023-07-02T00:33:56;27.90;;;8.30;;
48849;SDS011;63210;53.370;6.770;2023-07-02T00:36:22;24.05;;;8.98;;
48849;SDS011;63210;53.370;6.770;2023-07-02T00:38:47;22.23;;;7.73;;
48849;SDS011;63210;53.370;6.770;2023-07-02T00:41:13;18.48;;;8.90;;
48849;SDS011;63210;53.370;6.770;2023-07-02T00:43:39;20.75;;;8.27;;
48849;SDS011;63210;53.370;6.770;2023-07-02T00:46:08;24.92;;;8.55;;
48849;SDS011;63210;53.370;6.770;2023-07-02T00:48:33;17.88;;;7.43;;
48849;SDS011;63210;53.370;6.770;2023-07-02T00:50:59;23.00;;;8.30;;
48849;SDS011;63210;53.370;6.770;2023-07-02T00:53:25;18.52;;;7.40;;
48849;SDS011;63210;53.370;6.770;2023-07-02T00:55:50;19.80;;;7.80;;
48849;SDS011;63210;53.370;6.770;2023-07-02T00:58:15;23.10;;;8.57;;
48849;SDS011;63210;53.370;6.770;2023-07-02T01:00:41;23.40;;;7.75;;
48849;SDS011;63210;53.370;6.770;2023-07-02T01:03:07;19.85;;;7.82;;
48849;SDS011;63210;53.370;6.770;2023-07-02T01:05:32;21.80;;;7.60;;
48849;SDS011;63210;53.370;6.770;2023-07-02T01:08:01;26.02;;;8.65;;
48849;SDS011;63210;53.370;6.770;2023-07-02T01:10:26;18.25;;;8.13;;
48849;SDS011;63210;53.370;6.770;2023-07-02T01:12:52;24.42;;;9.98;;
48849;SDS011;63210;53.370;6.770;2023-07-02T01:15:17;24.88;;;8.50;;
48849;SDS011;63210;53.370;6.770;2023-07-02T01:17:42;25.37;;;8.93;;
48849;SDS011;63210;53.370;6.770;2023-07-02T01:20:09;25.73;;;8.13;;
48849;SDS011;63210;53.370;6.770;2023-07-02T01:22:34;26.15;;;9.10;;
48849;SDS011;63210;53.370;6.770;2023-07-02T01:25:00;25.50;;;8.10;;
48849;SDS011;63210;53.370;6.770;2023-07-02T01:27:28;22.20;;;7.57;;
48849;SDS011;63210;53.370;6.770;2023-07-02T01:29:54;23.98;;;7.90;;
48849;SDS011;63210;53.370;6.770;2023-07-02T01:32:20;27.70;;;8.77;;
48849;SDS011;63210;53.370;6.770;2023-07-02T01:34:45;27.83;;;9.80;;
48849;SDS011;63210;53.370;6.770;2023-07-02T01:37:14;31.77;;;8.68;;
48849;SDS011;63210;53.370;6.770;2023-07-02T01:39:39;27.90;;;9.55;;
48849;SDS011;63210;53.370;6.770;2023-07-02T01:42:08;30.40;;;9.35;;
48849;SDS011;63210;53.370;6.770;2023-07-02T01:44:34;27.33;;;9.27;;
48849;SDS011;63210;53.370;6.770;2023-07-02T01:47:00;24.27;;;8.85;;
48849;SDS011;63210;53.370;6.770;2023-07-02T01:49:25;29.17;;;8.75;;
48849;SDS011;63210;53.370;6.770;2023-07-02T01:51:51;24.60;;;7.80;;
48849;SDS011;63210;53.370;6.770;2023-07-02T01:54:17;25.73;;;9.02;;
48849;SDS011;63210;53.370;6.770;2023-07-02T01:56:42;30.23;;;9.73;;
48849;SDS011;63210;53.370;6.770;2023-07-02T01:59:07;30.10;;;9.38;;
48849;SDS011;63210;53.370;6.770;2023-07-02T02:01:33;31.40;;;9.13;;
48849;SDS011;63210;53.370;6.770;2023-07-02T02:03:59;32.57;;;9.97;;
48849;SDS011;63210;53.370;6.770;2023-07-02T02:06:24;26.85;;;9.18;;
48849;SDS011;63210;53.370;6.770;2023-07-02T02:08:49;30.45;;;9.43;;
48849;SDS011;63210;53.370;6.770;2023-07-02T02:11:14;28.88;;;10.48;;
48849;SDS011;63210;53.370;6.770;2023-07-02T02:13:40;38.47;;;9.90;;
48849;SDS011;63210;53.370;6.770;2023-07-02T02:16:05;28.05;;;9.10;;
48849;SDS011;63210;53.370;6.770;2023-07-02T02:18:30;33.42;;;8.85;;
48849;SDS011;63210;53.370;6.770;2023-07-02T02:20:56;30.63;;;8.77;;
48849;SDS011;63210;53.370;6.770;2023-07-02T02:23:21;27.27;;;9.00;;
48849;SDS011;63210;53.370;6.770;2023-07-02T02:25:46;28.70;;;9.10;;
48849;SDS011;63210;53.370;6.770;2023-07-02T02:28:11;30.43;;;10.17;;
48849;SDS011;63210;53.370;6.770;2023-07-02T02:30:37;28.40;;;9.27;;
48849;SDS011;63210;53.370;6.770;2023-07-02T02:33:02;27.02;;;8.85;;
48849;SDS011;63210;53.370;6.770;2023-07-02T02:35:27;31.27;;;10.52;;
48849;SDS011;63210;53.370;6.770;2023-07-02T02:37:53;26.58;;;9.73;;
48849;SDS011;63210;53.370;6.770;2023-07-02T02:40:18;35.87;;;9.37;;
48849;SDS011;63210;53.370;6.770;2023-07-02T02:42:43;29.83;;;10.53;;
48849;SDS011;63210;53.370;6.770;2023-07-02T02:45:09;28.35;;;10.77;;
48849;SDS011;63210;53.370;6.770;2023-07-02T02:47:34;25.80;;;9.00;;
48849;SDS011;63210;53.370;6.770;2023-07-02T02:49:59;29.80;;;9.60;;
48849;SDS011;63210;53.370;6.770;2023-07-02T02:52:24;26.13;;;9.43;;
48849;SDS011;63210;53.370;6.770;2023-07-02T02:54:50;30.77;;;9.35;;
48849;SDS011;63210;53.370;6.770;2023-07-02T02:57:18;28.55;;;9.27;;
48849;SDS011;63210;53.370;6.770;2023-07-02T02:59:43;33.80;;;10.20;;
48849;SDS011;63210;53.370;6.770;2023-07-02T03:02:08;28.15;;;9.85;;
48849;SDS011;63210;53.370;6.770;2023-07-02T03:04:34;34.03;;;10.13;;
48849;SDS011;63210;53.370;6.770;2023-07-02T03:06:59;34.13;;;10.07;;
48849;SDS011;63210;53.370;6.770;2023-07-02T03:09:24;30.60;;;10.75;;
48849;SDS011;63210;53.370;6.770;2023-07-02T03:11:50;25.80;;;10.30;;
48849;SDS011;63210;53.370;6.770;2023-07-02T03:14:15;29.70;;;9.23;;
48849;SDS011;63210;53.370;6.770;2023-07-02T03:16:41;26.23;;;9.13;;
48849;SDS011;63210;53.370;6.770;2023-07-02T03:19:07;28.65;;;9.70;;
48849;SDS011;63210;53.370;6.770;2023-07-02T03:21:36;32.60;;;10.40;;
48849;SDS011;63210;53.370;6.770;2023-07-02T03:24:04;26.33;;;10.20;;
48849;SDS011;63210;53.370;6.770;2023-07-02T03:26:33;32.50;;;9.77;;
48849;SDS011;63210;53.370;6.770;2023-07-02T03:29:10;30.73;;;9.15;;
48849;SDS011;63210;53.370;6.770;2023-07-02T03:31:39;31.88;;;9.45;;
48849;SDS011;63210;53.370;6.770;2023-07-02T03:34:08;33.60;;;9.93;;
48849;SDS011;63210;53.370;6.770;2023-07-02T03:36:34;31.13;;;10.43;;
48849;SDS011;63210;53.370;6.770;2023-07-02T03:38:59;29.23;;;9.20;;
48849;SDS011;63210;53.370;6.770;2023-07-02T03:41:24;35.33;;;11.38;;
48849;SDS011;63210;53.370;6.770;2023-07-02T03:43:50;34.85;;;9.75;;
48849;SDS011;63210;53.370;6.770;2023-07-02T03:46:15;29.77;;;9.15;;
48849;SDS011;63210;53.370;6.770;2023-07-02T03:48:40;28.80;;;9.35;;
48849;SDS011;63210;53.370;6.770;2023-07-02T03:51:06;30.52;;;9.27;;
48849;SDS011;63210;53.370;6.770;2023-07-02T03:53:31;27.02;;;9.27;;
48849;SDS011;63210;53.370;6.770;2023-07-02T03:55:56;37.33;;;9.32;;
48849;SDS011;63210;53.370;6.770;2023-07-02T03:58:21;23.10;;;8.35;;
48849;SDS011;63210;53.370;6.770;2023-07-02T04:00:47;27.70;;;9.32;;
48849;SDS011;63210;53.370;6.770;2023-07-02T04:03:14;41.17;;;10.52;;
48849;SDS011;63210;53.370;6.770;2023-07-02T04:05:40;27.05;;;9.80;;
48849;SDS011;63210;53.370;6.770;2023-07-02T04:08:05;26.17;;;9.20;;
48849;SDS011;63210;53.370;6.770;2023-07-02T04:10:30;30.07;;;9.30;;
48849;SDS011;63210;53.370;6.770;2023-07-02T04:12:55;29.00;;;9.07;;
48849;SDS011;63210;53.370;6.770;2023-07-02T04:15:21;34.53;;;10.07;;
48849;SDS011;63210;53.370;6.770;2023-07-02T04:17:46;29.23;;;9.07;;
48849;SDS011;63210;53.370;6.770;2023-07-02T04:20:11;25.27;;;8.85;;
48849;SDS011;63210;53.370;6.770;2023-07-02T04:22:36;27.38;;;9.05;;
48849;SDS011;63210;53.370;6.770;2023-07-02T04:25:02;22.60;;;8.23;;
48849;SDS011;63210;53.370;6.770;2023-07-02T04:27:27;21.13;;;8.57;;
48849;SDS011;63210;53.370;6.770;2023-07-02T04:29:53;31.13;;;8.68;;
48849;SDS011;63210;53.370;6.770;2023-07-02T04:32:18;25.98;;;8.38;;
48849;SDS011;63210;53.370;6.770;2023-07-02T04:34:43;30.90;;;9.20;;
48849;SDS011;63210;53.370;6.770;2023-07-02T04:37:09;23.88;;;8.10;;
48849;SDS011;63210;53.370;6.770;2023-07-02T04:39:34;26.75;;;9.02;;
48849;SDS011;63210;53.370;6.770;2023-07-02T04:41:59;22.23;;;8.60;;
48849;SDS011;63210;53.370;6.770;2023-07-02T04:44:24;24.30;;;8.13;;
48849;SDS011;63210;53.370;6.770;2023-07-02T04:46:55;26.35;;;8.27;;
48849;SDS011;63210;53.370;6.770;2023-07-02T04:49:20;24.60;;;9.48;;
48849;SDS011;63210;53.370;6.770;2023-07-02T04:51:45;30.73;;;8.27;;
48849;SDS011;63210;53.370;6.770;2023-07-02T04:54:10;23.27;;;7.80;;
48849;SDS011;63210;53.370;6.770;2023-07-02T04:56:36;26.17;;;9.17;;
48849;SDS011;63210;53.370;6.770;2023-07-02T04:59:01;20.90;;;7.50;;
48849;SDS011;63210;53.370;6.770;2023-07-02T05:01:27;26.40;;;7.20;;
48849;SDS011;63210;53.370;6.770;2023-07-02T05:03:52;22.92;;;9.10;;
48849;SDS011;63210;53.370;6.770;2023-07-02T05:06:18;23.00;;;9.20;;
48849;SDS011;63210;53.370;6.770;2023-07-02T05:08:43;25.42;;;8.32;;
48849;SDS011;63210;53.370;6.770;2023-07-02T05:11:08;24.58;;;7.95;;
48849;SDS011;63210;53.370;6.770;2023-07-02T05:13:34;19.50;;;7.70;;
48849;SDS011;63210;53.370;6.770;2023-07-02T05:15:59;25.30;;;8.90;;
48849;SDS011;63210;53.370;6.770;2023-07-02T05:18:24;23.60;;;8.37;;
48849;SDS011;63210;53.370;6.770;2023-07-02T05:20:50;21.13;;;6.40;;
48849;SDS011;63210;53.370;6.770;2023-07-02T05:23:15;20.07;;;5.90;;
48849;SDS011;63210;53.370;6.770;2023-07-02T05:25:40;24.20;;;6.17;;
48849;SDS011;63210;53.370;6.770;2023-07-02T05:28:05;20.00;;;6.35;;
48849;SDS011;63210;53.370;6.770;2023-07-02T05:30:30;19.13;;;5.68;;
48849;SDS011;63210;53.370;6.770;2023-07-02T05:32:56;20.10;;;5.10;;
48849;SDS011;63210;53.370;6.770;2023-07-02T05:35:22;19.17;;;5.22;;
48849;SDS011;63210;53.370;6.770;2023-07-02T05:37:47;17.80;;;5.82;;
48849;SDS011;63210;53.370;6.770;2023-07-02T05:40:13;19.92;;;6.88;;
48849;SDS011;63210;53.370;6.770;2023-07-02T05:42:38;25.05;;;6.63;;
48849;SDS011;63210;53.370;6.770;2023-07-02T05:45:03;18.13;;;5.60;;
48849;SDS011;63210;53.370;6.770;2023-07-02T05:47:29;18.77;;;5.60;;
48849;SDS011;63210;53.370;6.770;2023-07-02T05:49:54;18.37;;;4.70;;
48849;SDS011;63210;53.370;6.770;2023-07-02T05:52:19;18.70;;;5.20;;
48849;SDS011;63210;53.370;6.770;2023-07-02T05:54:45;25.20;;;7.00;;
48849;SDS011;63210;53.370;6.770;2023-07-02T05:57:10;14.73;;;5.10;;
48849;SDS011;63210;53.370;6.770;2023-07-02T05:59:35;17.20;;;5.40;;
48849;SDS011;63210;53.370;6.770;2023-07-02T06:02:00;16.37;;;5.40;;
48849;SDS011;63210;53.370;6.770;2023-07-02T06:04:26;17.27;;;6.13;;
48849;SDS011;63210;53.370;6.770;2023-07-02T06:06:51;13.88;;;4.95;;
48849;SDS011;63210;53.370;6.770;2023-07-02T06:09:16;18.63;;;5.00;;
48849;SDS011;63210;53.370;6.770;2023-07-02T06:11:42;15.30;;;5.38;;
48849;SDS011;63210;53.370;6.770;2023-07-02T06:14:07;17.13;;;4.63;;
48849;SDS011;63210;53.370;6.770;2023-07-02T06:16:32;11.17;;;4.13;;
48849;SDS011;63210;53.370;6.770;2023-07-02T06:18:58;20.95;;;5.45;;
48849;SDS011;63210;53.370;6.770;2023-07-02T06:21:23;15.57;;;4.43;;
48849;SDS011;63210;53.370;6.770;2023-07-02T06:23:54;16.60;;;5.57;;
48849;SDS011;63210;53.370;6.770;2023-07-02T06:26:19;11.52;;;4.68;;
48849;SDS011;63210;53.370;6.770;2023-07-02T06:28:45;17.42;;;5.78;;
48849;SDS011;63210;53.370;6.770;2023-07-02T06:31:10;10.95;;;4.45;;
48849;SDS011;63210;53.370;6.770;2023-07-02T06:33:38;17.13;;;5.18;;
48849;SDS011;63210;53.370;6.770;2023-07-02T06:36:03;15.77;;;5.53;;
48849;SDS011;63210;53.370;6.770;2023-07-02T06:38:29;16.05;;;5.43;;
48849;SDS011;63210;53.370;6.770;2023-07-02T06:40:54;12.10;;;4.18;;
48849;SDS011;63210;53.370;6.770;2023-07-02T06:43:19;18.05;;;5.03;;
48849;SDS011;63210;53.370;6.770;2023-07-02T06:45:44;15.80;;;5.25;;
48849;SDS011;63210;53.370;6.770;2023-07-02T06:48:10;17.80;;;5.68;;
48849;SDS011;63210;53.370;6.770;2023-07-02T06:50:35;16.00;;;4.55;;
48849;SDS011;63210;53.370;6.770;2023-07-02T06:53:00;14.13;;;4.27;;
48849;SDS011;63210;53.370;6.770;2023-07-02T06:55:25;14.40;;;3.28;;
48849;SDS011;63210;53.370;6.770;2023-07-02T06:57:51;8.73;;;3.83;;
48849;SDS011;63210;53.370;6.770;2023-07-02T07:00:16;12.75;;;3.95;;
48849;SDS011;63210;53.370;6.770;2023-07-02T07:02:41;12.25;;;3.97;;
48849;SDS011;63210;53.370;6.770;2023-07-02T07:05:07;19.27;;;4.13;;
48849;SDS011;63210;53.370;6.770;2023-07-02T07:07:33;17.08;;;4.38;;
48849;SDS011;63210;53.370;6.770;2023-07-02T07:09:58;20.45;;;4.35;;
48849;SDS011;63210;53.370;6.770;2023-07-02T07:12:23;13.23;;;4.43;;
48849;SDS011;63210;53.370;6.770;2023-07-02T07:14:48;15.30;;;4.32;;
48849;SDS011;63210;53.370;6.770;2023-07-02T07:17:14;16.98;;;5.03;;
48849;SDS011;63210;53.370;6.770;2023-07-02T07:19:39;13.87;;;4.07;;
48849;SDS011;63210;53.370;6.770;2023-07-02T07:22:04;17.02;;;4.57;;
48849;SDS011;63210;53.370;6.770;2023-07-02T07:24:30;12.00;;;4.03;;
48849;SDS011;63210;53.370;6.770;2023-07-02T07:26:55;10.23;;;3.38;;
48849;SDS011;63210;53.370;6.770;2023-07-02T07:29:21;11.10;;;4.18;;
48849;SDS011;63210;53.370;6.770;2023-07-02T07:31:46;11.13;;;3.75;;
48849;SDS011;63210;53.370;6.770;2023-07-02T07:34:12;15.70;;;4.05;;
48849;SDS011;63210;53.370;6.770;2023-07-02T07:36:37;10.30;;;3.47;;
48849;SDS011;63210;53.370;6.770;2023-07-02T07:39:02;14.57;;;3.20;;
48849;SDS011;63210;53.370;6.770;2023-07-02T07:41:28;14.15;;;3.75;;
48849;SDS011;63210;53.370;6.770;2023-07-02T07:43:53;10.77;;;2.83;;
48849;SDS011;63210;53.370;6.770;2023-07-02T07:46:18;13.25;;;3.67;;
48849;SDS011;63210;53.370;6.770;2023-07-02T07:48:44;8.20;;;3.00;;
48849;SDS011;63210;53.370;6.770;2023-07-02T07:51:09;10.97;;;3.20;;
48849;SDS011;63210;53.370;6.770;2023-07-02T07:53:37;11.35;;;3.30;;
48849;SDS011;63210;53.370;6.770;2023-07-02T07:56:02;13.63;;;3.75;;
48849;SDS011;63210;53.370;6.770;2023-07-02T07:58:28;12.15;;;2.80;;
48849;SDS011;63210;53.370;6.770;2023-07-02T08:00:53;9.25;;;3.13;;
48849;SDS011;63210;53.370;6.770;2023-07-02T08:03:18;11.30;;;4.20;;
48849;SDS011;63210;53.370;6.770;2023-07-02T08:05:43;6.25;;;1.98;;
48849;SDS011;63210;53.370;6.770;2023-07-02T08:08:09;6.65;;;2.90;;
48849;SDS011;63210;53.370;6.770;2023-07-02T08:10:34;8.47;;;2.80;;
48849;SDS011;63210;53.370;6.770;2023-07-02T08:12:59;9.90;;;1.92;;
48849;SDS011;63210;53.370;6.770;2023-07-02T08:15:24;12.77;;;4.07;;
48849;SDS011;63210;53.370;6.770;2023-07-02T08:17:50;10.48;;;3.55;;
48849;SDS011;63210;53.370;6.770;2023-07-02T08:20:19;11.38;;;3.05;;
48849;SDS011;63210;53.370;6.770;2023-07-02T08:22:44;9.48;;;3.35;;
48849;SDS011;63210;53.370;6.770;2023-07-02T08:25:09;9.13;;;2.85;;
48849;SDS011;63210;53.370;6.770;2023-07-02T08:27:35;9.18;;;3.13;;
48849;SDS011;63210;53.370;6.770;2023-07-02T08:30:00;12.80;;;2.70;;
48849;SDS011;63210;53.370;6.770;2023-07-02T08:32:25;8.90;;;2.83;;
48849;SDS011;63210;53.370;6.770;2023-07-02T08:34:51;12.77;;;3.28;;
48849;SDS011;63210;53.370;6.770;2023-07-02T08:37:17;6.50;;;2.50;;
48849;SDS011;63210;53.370;6.770;2023-07-02T08:39:42;10.98;;;3.40;;
48849;SDS011;63210;53.370;6.770;2023-07-02T08:42:07;11.02;;;3.50;;
48849;SDS011;63210;53.370;6.770;2023-07-02T08:44:33;8.77;;;3.17;;
48849;SDS011;63210;53.370;6.770;2023-07-02T08:46:58;12.27;;;3.50;;
48849;SDS011;63210;53.370;6.770;2023-07-02T08:49:24;5.13;;;2.80;;
48849;SDS011;63210;53.370;6.770;2023-07-02T08:51:49;11.48;;;3.35;;
48849;SDS011;63210;53.370;6.770;2023-07-02T08:54:17;10.38;;;3.67;;
48849;SDS011;63210;53.370;6.770;2023-07-02T08:56:42;11.02;;;3.45;;
48849;SDS011;63210;53.370;6.770;2023-07-02T08:59:08;11.40;;;3.17;;
48849;SDS011;63210;53.370;6.770;2023-07-02T09:01:44;12.10;;;3.72;;
48849;SDS011;63210;53.370;6.770;2023-07-02T09:04:14;10.93;;;3.35;;
48849;SDS011;63210;53.370;6.770;2023-07-02T09:06:39;20.47;;;3.33;;
48849;SDS011;63210;53.370;6.770;2023-07-02T09:09:05;12.73;;;3.80;;
48849;SDS011;63210;53.370;6.770;2023-07-02T09:11:30;8.75;;;2.92;;
48849;SDS011;63210;53.370;6.770;2023-07-02T09:13:56;11.38;;;3.97;;
48849;SDS011;63210;53.370;6.770;2023-07-02T09:16:29;8.75;;;3.03;;
48849;SDS011;63210;53.370;6.770;2023-07-02T09:18:58;12.73;;;3.58;;
48849;SDS011;63210;53.370;6.770;2023-07-02T09:21:42;10.98;;;3.10;;
48849;SDS011;63210;53.370;6.770;2023-07-02T09:24:27;8.13;;;2.40;;
48849;SDS011;63210;53.370;6.770;2023-07-02T09:26:54;12.93;;;3.03;;
48849;SDS011;63210;53.370;6.770;2023-07-02T09:29:23;6.45;;;2.10;;
48849;SDS011;63210;53.370;6.770;2023-07-02T09:31:49;6.68;;;2.15;;
48849;SDS011;63210;53.370;6.770;2023-07-02T09:34:14;11.15;;;2.72;;
48849;SDS011;63210;53.370;6.770;2023-07-02T09:36:40;10.07;;;2.85;;
48849;SDS011;63210;53.370;6.770;2023-07-02T09:39:18;9.90;;;2.10;;
48849;SDS011;63210;53.370;6.770;2023-07-02T09:41:44;9.05;;;2.33;;
48849;SDS011;63210;53.370;6.770;2023-07-02T09:44:10;9.10;;;2.60;;
48849;SDS011;63210;53.370;6.770;2023-07-02T09:46:37;9.85;;;2.63;;
48849;SDS011;63210;53.370;6.770;2023-07-02T09:49:02;10.02;;;2.70;;
48849;SDS011;63210;53.370;6.770;2023-07-02T09:51:28;12.18;;;2.85;;
48849;SDS011;63210;53.370;6.770;2023-07-02T09:53:53;7.00;;;2.58;;
48849;SDS011;63210;53.370;6.770;2023-07-02T09:56:18;8.87;;;2.70;;
48849;SDS011;63210;53.370;6.770;2023-07-02T09:58:47;7.65;;;2.35;;
48849;SDS011;63210;53.370;6.770;2023-07-02T10:01:12;6.90;;;2.47;;
48849;SDS011;63210;53.370;6.770;2023-07-02T10:03:37;7.83;;;2.60;;
48849;SDS011;63210;53.370;6.770;2023-07-02T10:06:03;10.23;;;2.50;;
48849;SDS011;63210;53.370;6.770;2023-07-02T10:08:29;11.20;;;2.55;;
48849;SDS011;63210;53.370;6.770;2023-07-02T10:11:05;9.35;;;2.88;;
48849;SDS011;63210;53.370;6.770;2023-07-02T10:13:31;8.73;;;2.28;;
48849;SDS011;63210;53.370;6.770;2023-07-02T10:16:03;7.30;;;2.37;;
48849;SDS011;63210;53.370;6.770;2023-07-02T10:18:28;4.75;;;2.05;;
48849;SDS011;63210;53.370;6.770;2023-07-02T10:20:53;7.90;;;2.10;;
48849;SDS011;63210;53.370;6.770;2023-07-02T10:23:19;6.47;;;2.33;;
48849;SDS011;63210;53.370;6.770;2023-07-02T10:25:44;2.25;;;1.40;;
48849;SDS011;63210;53.370;6.770;2023-07-02T10:28:21;5.13;;;1.80;;
48849;SDS011;63210;53.370;6.770;2023-07-02T10:30:49;8.48;;;2.45;;
48849;SDS011;63210;53.370;6.770;2023-07-02T10:33:15;7.07;;;1.60;;
48849;SDS011;63210;53.370;6.770;2023-07-02T10:35:41;4.35;;;1.52;;
48849;SDS011;63210;53.370;6.770;2023-07-02T10:38:07;8.07;;;2.40;;
48849;SDS011;63210;53.370;6.770;2023-07-02T10:40:32;6.38;;;2.17;;
48849;SDS011;63210;53.370;6.770;2023-07-02T10:43:01;4.45;;;1.65;;
48849;SDS011;63210;53.370;6.770;2023-07-02T10:45:33;4.82;;;2.00;;
48849;SDS011;63210;53.370;6.770;2023-07-02T10:47:58;6.22;;;2.45;;
48849;SDS011;63210;53.370;6.770;2023-07-02T10:50:24;5.20;;;2.25;;
48849;SDS011;63210;53.370;6.770;2023-07-02T10:52:50;6.70;;;2.08;;
48849;SDS011;63210;53.370;6.770;2023-07-02T10:55:25;3.47;;;2.25;;
48849;SDS011;63210;53.370;6.770;2023-07-02T10:58:01;8.50;;;2.42;;
48849;SDS011;63210;53.370;6.770;2023-07-02T11:00:27;8.18;;;2.25;;
48849;SDS011;63210;53.370;6.770;2023-07-02T11:02:52;5.95;;;1.80;;
48849;SDS011;63210;53.370;6.770;2023-07-02T11:05:17;7.00;;;2.30;;
48849;SDS011;63210;53.370;6.770;2023-07-02T11:07:43;7.85;;;2.55;;
48849;SDS011;63210;53.370;6.770;2023-07-02T11:10:09;4.43;;;2.20;;
48849;SDS011;63210;53.370;6.770;2023-07-02T11:12:34;7.85;;;2.50;;
48849;SDS011;63210;53.370;6.770;2023-07-02T11:15:09;8.30;;;2.42;;
48849;SDS011;63210;53.370;6.770;2023-07-02T11:17:35;5.20;;;1.95;;
48849;SDS011;63210;53.370;6.770;2023-07-02T11:20:00;10.85;;;2.58;;
48849;SDS011;63210;53.370;6.770;2023-07-02T11:22:32;5.50;;;2.40;;
48849;SDS011;63210;53.370;6.770;2023-07-02T11:24:58;4.80;;;2.05;;
48849;SDS011;63210;53.370;6.770;2023-07-02T11:27:32;13.07;;;3.25;;
48849;SDS011;63210;53.370;6.770;2023-07-02T11:30:01;8.40;;;2.72;;
48849;SDS011;63210;53.370;6.770;2023-07-02T11:32:26;7.68;;;2.22;;
48849;SDS011;63210;53.370;6.770;2023-07-02T11:34:54;11.38;;;3.35;;
48849;SDS011;63210;53.370;6.770;2023-07-02T11:37:20;8.40;;;2.90;;
48849;SDS011;63210;53.370;6.770;2023-07-02T11:39:45;11.90;;;3.17;;
48849;SDS011;63210;53.370;6.770;2023-07-02T11:42:11;7.97;;;2.92;;
48849;SDS011;63210;53.370;6.770;2023-07-02T11:44:36;5.20;;;2.23;;
48849;SDS011;63210;53.370;6.770;2023-07-02T11:47:01;9.27;;;2.30;;
48849;SDS011;63210;53.370;6.770;2023-07-02T11:49:26;11.88;;;3.63;;
48849;SDS011;63210;53.370;6.770;2023-07-02T11:51:52;7.17;;;2.10;;
48849;SDS011;63210;53.370;6.770;2023-07-02T11:54:18;5.53;;;1.90;;
48849;SDS011;63210;53.370;6.770;2023-07-02T11:56:43;5.05;;;2.70;;
48849;SDS011;63210;53.370;6.770;2023-07-02T11:59:09;8.18;;;2.13;;
48849;SDS011;63210;53.370;6.770;2023-07-02T12:01:34;7.75;;;2.33;;
48849;SDS011;63210;53.370;6.770;2023-07-02T12:04:00;8.93;;;2.42;;
48849;SDS011;63210;53.370;6.770;2023-07-02T12:06:25;5.75;;;2.08;;
48849;SDS011;63210;53.370;6.770;2023-07-02T12:08:50;13.53;;;2.80;;
48849;SDS011;63210;53.370;6.770;2023-07-02T12:11:16;8.30;;;2.65;;
48849;SDS011;63210;53.370;6.770;2023-07-02T12:13:41;8.43;;;3.15;;
48849;SDS011;63210;53.370;6.770;2023-07-02T12:16:06;10.68;;;2.20;;
48849;SDS011;63210;53.370;6.770;2023-07-02T12:18:32;7.95;;;2.38;;
48849;SDS011;63210;53.370;6.770;2023-07-02T12:20:57;6.00;;;2.40;;
48849;SDS011;63210;53.370;6.770;2023-07-02T12:23:22;7.60;;;2.07;;
48849;SDS011;63210;53.370;6.770;2023-07-02T12:25:47;10.07;;;3.10;;
48849;SDS011;63210;53.370;6.770;2023-07-02T12:28:14;9.80;;;2.43;;
48849;SDS011;63210;53.370;6.770;2023-07-02T12:30:39;3.40;;;1.85;;
48849;SDS011;63210;53.370;6.770;2023-07-02T12:33:05;8.70;;;2.57;;
48849;SDS011;63210;53.370;6.770;2023-07-02T12:35:30;7.75;;;2.50;;
48849;SDS011;63210;53.370;6.770;2023-07-02T12:37:55;10.10;;;2.53;;
48849;SDS011;63210;53.370;6.770;2023-07-02T12:40:23;11.30;;;2.85;;
48849;SDS011;63210;53.370;6.770;2023-07-02T12:42:49;7.70;;;2.60;;
48849;SDS011;63210;53.370;6.770;2023-07-02T12:45:15;8.48;;;3.00;;
48849;SDS011;63210;53.370;6.770;2023-07-02T12:47:40;6.97;;;2.70;;
48849;SDS011;63210;53.370;6.770;2023-07-02T12:50:06;8.35;;;2.40;;
48849;SDS011;63210;53.370;6.770;2023-07-02T12:52:32;10.77;;;2.78;;
48849;SDS011;63210;53.370;6.770;2023-07-02T12:54:57;10.02;;;2.85;;
48849;SDS011;63210;53.370;6.770;2023-07-02T12:57:23;8.65;;;3.03;;
48849;SDS011;63210;53.370;6.770;2023-07-02T12:59:48;7.17;;;2.93;;
48849;SDS011;63210;53.370;6.770;2023-07-02T13:02:13;10.05;;;3.10;;
48849;SDS011;63210;53.370;6.770;2023-07-02T13:04:39;10.88;;;3.50;;
48849;SDS011;63210;53.370;6.770;2023-07-02T13:07:04;6.20;;;2.05;;
48849;SDS011;63210;53.370;6.770;2023-07-02T13:09:29;10.38;;;3.53;;
48849;SDS011;63210;53.370;6.770;2023-07-02T13:11:55;8.90;;;2.80;;
48849;SDS011;63210;53.370;6.770;2023-07-02T13:14:20;7.80;;;3.00;;
48849;SDS011;63210;53.370;6.770;2023-07-02T13:16:45;8.60;;;2.88;;
48849;SDS011;63210;53.370;6.770;2023-07-02T13:19:11;8.98;;;3.20;;
48849;SDS011;63210;53.370;6.770;2023-07-02T13:21:36;9.32;;;2.95;;
48849;SDS011;63210;53.370;6.770;2023-07-02T13:24:01;10.23;;;3.15;;
48849;SDS011;63210;53.370;6.770;2023-07-02T13:26:27;8.65;;;2.88;;
48849;SDS011;63210;53.370;6.770;2023-07-02T13:28:52;8.10;;;3.58;;
48849;SDS011;63210;53.370;6.770;2023-07-02T13:31:17;6.35;;;2.53;;
48849;SDS011;63210;53.370;6.770;2023-07-02T13:33:43;11.77;;;3.60;;
48849;SDS011;63210;53.370;6.770;2023-07-02T13:36:08;9.50;;;3.20;;
48849;SDS011;63210;53.370;6.770;2023-07-02T13:38:33;13.60;;;3.67;;
48849;SDS011;63210;53.370;6.770;2023-07-02T13:40:59;6.82;;;2.88;;
48849;SDS011;63210;53.370;6.770;2023-07-02T13:43:24;11.15;;;3.83;;
48849;SDS011;63210;53.370;6.770;2023-07-02T13:45:50;11.17;;;3.57;;
48849;SDS011;63210;53.370;6.770;2023-07-02T13:48:15;11.40;;;3.53;;
48849;SDS011;63210;53.370;6.770;2023-07-02T13:50:40;9.18;;;3.72;;
48849;SDS011;63210;53.370;6.770;2023-07-02T13:53:05;8.68;;;3.50;;
48849;SDS011;63210;53.370;6.770;2023-07-02T13:55:31;13.00;;;3.50;;
48849;SDS011;63210;53.370;6.770;2023-07-02T13:57:56;9.13;;;3.53;;
48849;SDS011;63210;53.370;6.770;2023-07-02T14:00:22;9.23;;;3.50;;
48849;SDS011;63210;53.370;6.770;2023-07-02T14:02:47;7.15;;;2.80;;
48849;SDS011;63210;53.370;6.770;2023-07-02T14:05:13;6.80;;;3.37;;
48849;SDS011;63210;53.370;6.770;2023-07-02T14:07:38;9.55;;;3.53;;
48849;SDS011;63210;53.370;6.770;2023-07-02T14:10:03;8.63;;;3.47;;
48849;SDS011;63210;53.370;6.770;2023-07-02T14:12:29;11.55;;;3.25;;
48849;SDS011;63210;53.370;6.770;2023-07-02T14:14:54;8.45;;;3.03;;
48849;SDS011;63210;53.370;6.770;2023-07-02T14:17:19;8.45;;;2.45;;
48849;SDS011;63210;53.370;6.770;2023-07-02T14:19:44;9.13;;;3.00;;
48849;SDS011;63210;53.370;6.770;2023-07-02T14:22:10;9.77;;;3.22;;
48849;SDS011;63210;53.370;6.770;2023-07-02T14:24:35;10.20;;;3.30;;
48849;SDS011;63210;53.370;6.770;2023-07-02T14:27:00;12.10;;;3.63;;
48849;SDS011;63210;53.370;6.770;2023-07-02T14:29:26;9.52;;;3.20;;
48849;SDS011;63210;53.370;6.770;2023-07-02T14:31:51;6.35;;;3.35;;